Terminal Aerodrome Forecast
Issued by NWS Louisville, KY

Home | Current Version | Previous Version | Text Only | Print | Product List | Glossary On
Versions: 1 2 3 4 5 6 7 8 9 10 11 12 13 14 15
000
FTUS43 KLMK 300500
TAFBWG
TAF
KBWG 300525Z 3006/3106 33005KT P6SM VCSH SCT015 BKN040
     FM300700 33006KT P6SM VCSH BKN015
     FM301400 35008KT P6SM SCT015 BKN025
     FM301800 35007KT P6SM SCT035
     FM310100 03003KT P6SM SCT250=

USA.gov is the U.S. government's official web portal to all federal, state and local government web resources and services.